Time;durP1;ratioP1;P1;durP2;ratioP2;P2;SDS_P1;SDS_P2;PMS_P1;PMS_P2;Temp;Humidity;BMP_temperature;BMP_pressure;BME280_temperature;BME280_humidity;BME280_pressure;Samples;Min_cycle;Max_cycle;Signal;HPM_P1;HPM_P2
2021/06/02 00:01:51;;;;;;;5.70;2.78;;;16.70;99.90;;;;;;5094682;28;20058;-74
2021/06/02 00:04:19;;;;;;;5.93;2.80;;;16.70;99.90;;;;;;5094654;28;20048;-73
2021/06/02 00:06:46;;;;;;;5.38;3.25;;;16.60;99.90;;;;;;5094686;28;20122;-73
2021/06/02 00:09:13;;;;;;;4.43;3.00;;;16.60;99.90;;;;;;5094697;28;20112;-74
2021/06/02 00:11:40;;;;;;;5.88;3.28;;;16.60;99.90;;;;;;5094685;28;20048;-74
2021/06/02 00:14:06;;;;;;;8.65;3.10;;;16.60;99.90;;;;;;5094455;28;20052;-74
2021/06/02 00:16:34;;;;;;;6.30;2.55;;;16.60;99.90;;;;;;5094549;28;20059;-74
2021/06/02 00:19:01;;;;;;;4.78;2.75;;;16.60;99.90;;;;;;5096342;28;20063;-72
2021/06/02 00:21:28;;;;;;;6.38;2.92;;;16.60;99.90;;;;;;5098602;28;20060;-72
2021/06/02 00:23:54;;;;;;;4.72;2.83;;;16.50;99.90;;;;;;5098590;28;20135;-74
2021/06/02 00:26:21;;;;;;;6.22;3.38;;;16.50;99.90;;;;;;5098593;28;20052;-74
2021/06/02 00:28:48;;;;;;;6.18;2.75;;;16.50;99.90;;;;;;5098616;28;20058;-72
2021/06/02 00:31:15;;;;;;;4.05;2.70;;;16.50;99.90;;;;;;5098372;28;20040;-72
2021/06/02 00:33:43;;;;;;;5.18;3.10;;;16.40;99.90;;;;;;5098549;28;20372;-72
2021/06/02 00:36:10;;;;;;;4.65;2.80;;;16.40;99.90;;;;;;5098503;28;20052;-72
2021/06/02 00:38:37;;;;;;;5.75;3.15;;;16.30;99.90;;;;;;5098120;28;20381;-72
2021/06/02 00:41:03;;;;;;;3.83;2.72;;;16.30;99.90;;;;;;5098233;28;20044;-72
2021/06/02 00:43:30;;;;;;;6.07;3.20;;;16.30;99.90;;;;;;5098149;28;20055;-72
2021/06/02 00:45:57;;;;;;;6.25;3.45;;;16.30;99.90;;;;;;5098069;28;20052;-72
2021/06/02 00:48:23;;;;;;;6.20;3.83;;;16.30;99.90;;;;;;5098060;28;20050;-72
2021/06/02 00:50:51;;;;;;;5.75;3.30;;;16.20;99.90;;;;;;5098114;28;20395;-72
2021/06/02 00:53:18;;;;;;;8.27;3.88;;;16.20;99.90;;;;;;5098207;28;20047;-74
2021/06/02 00:55:45;;;;;;;6.10;3.30;;;16.20;99.90;;;;;;5097854;28;20456;-73
2021/06/02 00:58:14;;;;;;;5.65;3.33;;;16.20;99.90;;;;;;5097555;28;20052;-74
2021/06/02 01:00:41;;;;;;;6.80;3.50;;;16.20;99.90;;;;;;5097731;28;20048;-72
2021/06/02 01:03:07;;;;;;;7.13;3.60;;;16.20;99.90;;;;;;5098006;28;20105;-72
2021/06/02 01:05:34;;;;;;;8.15;3.72;;;16.20;99.90;;;;;;5097709;28;20048;-72
2021/06/02 01:08:03;;;;;;;7.25;3.75;;;16.20;99.90;;;;;;5097954;28;20426;-74
2021/06/02 01:10:30;;;;;;;6.13;3.47;;;16.10;99.90;;;;;;5097628;28;20372;-74
2021/06/02 01:12:57;;;;;;;5.90;3.72;;;16.10;99.90;;;;;;5097561;28;20058;-72
2021/06/02 01:15:23;;;;;;;4.25;3.05;;;16.10;99.90;;;;;;5097545;28;20058;-72
2021/06/02 01:17:50;;;;;;;8.10;3.70;;;16.00;99.90;;;;;;5097678;28;20048;-72
2021/06/02 01:20:17;;;;;;;6.88;3.88;;;16.00;99.90;;;;;;5097627;28;20058;-71
2021/06/02 01:22:45;;;;;;;7.32;4.40;;;15.90;99.90;;;;;;5097581;28;20044;-73
2021/06/02 01:25:13;;;;;;;6.03;3.90;;;15.90;99.90;;;;;;5097452;28;20044;-71
2021/06/02 01:27:40;;;;;;;6.25;4.00;;;15.80;99.90;;;;;;5097422;28;20044;-71
2021/06/02 01:30:07;;;;;;;5.82;4.00;;;15.80;99.90;;;;;;5097021;28;20043;-72
2021/06/02 01:33:04;;;;;;;8.73;4.07;;;15.80;99.90;;;;;;5097399;28;20048;-72
2021/06/02 01:35:55;;;;;;;6.82;4.22;;;15.70;99.90;;;;;;5084266;28;20052;-72
2021/06/02 01:38:45;;;;;;;11.40;4.38;;;15.70;99.90;;;;;;5097140;28;20048;-71
2021/06/02 01:41:53;;;;;;;5.75;3.90;;;15.70;99.90;;;;;;5097030;28;20048;-71
2021/06/02 01:44:43;;;;;;;6.55;3.65;;;15.70;99.90;;;;;;5035107;28;20481;-71
2021/06/02 01:47:45;;;;;;;9.25;4.32;;;15.70;99.90;;;;;;5035177;28;20453;-71
2021/06/02 01:50:21;;;;;;;10.30;4.22;;;15.70;99.90;;;;;;5035253;28;20057;-72
2021/06/02 01:53:26;;;;;;;6.75;3.55;;;15.60;99.90;;;;;;5034992;28;20059;-72
2021/06/02 01:56:34;;;;;;;9.55;3.65;;;15.60;99.90;;;;;;4976197;28;20055;-71
2021/06/02 01:59:43;;;;;;;7.15;4.30;;;15.60;99.90;;;;;;4976032;28;20121;-74
2021/06/02 02:02:30;;;;;;;6.10;3.60;;;15.50;99.90;;;;;;4976084;28;20093;-73
2021/06/02 02:05:23;;;;;;;7.97;3.70;;;15.60;99.90;;;;;;4976056;28;20051;-74
2021/06/02 02:08:10;;;;;;;7.93;3.42;;;15.50;99.90;;;;;;4976002;28;20055;-73
2021/06/02 02:10:43;;;;;;;7.18;3.80;;;15.50;99.90;;;;;;4975960;28;20051;-73
2021/06/02 02:13:25;;;;;;;6.68;3.75;;;15.50;99.90;;;;;;4975885;28;20050;-73
2021/06/02 02:16:23;;;;;;;8.23;4.43;;;15.50;99.90;;;;;;4975924;28;20055;-73
2021/06/02 02:18:56;;;;;;;7.22;3.50;;;15.50;99.90;;;;;;4905538;29;20059;-72
2021/06/02 02:21:40;;;;;;;6.90;4.20;;;15.40;99.90;;;;;;4956437;29;20059;-71
2021/06/02 02:24:23;;;;;;;10.70;4.32;;;15.40;99.90;;;;;;4956371;28;20055;-71
2021/06/02 02:26:52;;;;;;;7.30;4.85;;;15.40;99.90;;;;;;4956217;29;20058;-71
2021/06/02 02:29:30;;;;;;;6.18;3.72;;;15.40;99.90;;;;;;4956463;29;20055;-73
2021/06/02 02:32:14;;;;;;;8.57;3.67;;;15.30;99.90;;;;;;4980515;28;20049;-73
2021/06/02 02:35:03;;;;;;;7.43;4.07;;;15.30;99.90;;;;;;5034244;28;20045;-72
2021/06/02 02:37:37;;;;;;;8.30;3.97;;;15.30;99.90;;;;;;5034008;28;20401;-71
2021/06/02 02:40:06;;;;;;;10.02;4.32;;;15.30;99.90;;;;;;5034238;28;20060;-71
2021/06/02 02:42:38;;;;;;;7.35;3.97;;;15.20;99.90;;;;;;5033273;28;20049;-71
2021/06/02 02:45:10;;;;;;;6.43;3.45;;;15.20;99.90;;;;;;5034128;28;20049;-73
2021/06/02 02:47:40;;;;;;;7.40;4.35;;;15.20;99.90;;;;;;5033975;28;20114;-71
2021/06/02 02:50:11;;;;;;;9.23;4.60;;;15.20;99.90;;;;;;5033975;28;20053;-71
2021/06/02 02:53:02;;;;;;;7.40;3.40;;;15.20;99.90;;;;;;5033955;28;20053;-71
2021/06/02 02:55:30;;;;;;;5.60;3.70;;;15.10;99.90;;;;;;5075216;28;20396;-71
2021/06/02 02:57:58;;;;;;;7.68;4.15;;;15.10;99.90;;;;;;5095385;28;20062;-70
2021/06/02 03:00:31;;;;;;;6.55;3.67;;;15.10;99.90;;;;;;5095801;28;20104;-71
2021/06/02 03:03:03;;;;;;;7.22;4.05;;;15.00;99.90;;;;;;5095609;28;20117;-72
2021/06/02 03:05:30;;;;;;;8.00;4.40;;;15.00;99.90;;;;;;5094992;28;20048;-73
2021/06/02 03:08:00;;;;;;;8.13;3.80;;;15.00;99.90;;;;;;5094210;28;20133;-73
2021/06/02 03:10:27;;;;;;;7.32;4.25;;;15.00;99.90;;;;;;5095875;28;20058;-71
2021/06/02 03:12:58;;;;;;;7.68;4.03;;;14.90;99.90;;;;;;5095348;28;20113;-72
2021/06/02 03:15:38;;;;;;;9.15;4.78;;;14.90;99.90;;;;;;5095455;28;20113;-72
2021/06/02 03:18:12;;;;;;;9.38;4.22;;;14.90;99.90;;;;;;5095219;28;20044;-73
2021/06/02 03:20:44;;;;;;;9.18;4.68;;;14.80;99.90;;;;;;5095234;28;20139;-73
2021/06/02 03:23:19;;;;;;;7.18;4.07;;;14.80;99.90;;;;;;5095394;28;20052;-72
2021/06/02 03:25:48;;;;;;;10.00;4.20;;;14.70;99.90;;;;;;5094872;28;20044;-73
2021/06/02 03:28:22;;;;;;;11.48;5.45;;;14.70;99.90;;;;;;5095157;28;20088;-72
2021/06/02 03:30:54;;;;;;;;;;;14.70;99.90;;;;;;5095645;28;20464;-72
2021/06/02 03:33:30;;;;;;;13.63;5.57;;;14.60;99.90;;;;;;5095239;28;19930;-72
2021/06/02 03:36:04;;;;;;;12.07;5.32;;;14.60;99.90;;;;;;5095241;28;20165;-72
2021/06/02 03:38:43;;;;;;;11.30;6.07;;;14.60;99.90;;;;;;5095084;28;20048;-72
2021/06/02 03:41:20;;;;;;;13.40;5.78;;;14.50;99.90;;;;;;5095091;28;20062;-72
2021/06/02 03:43:47;;;;;;;14.25;6.75;;;14.50;99.90;;;;;;5095173;28;20109;-73
2021/06/02 03:46:37;;;;;;;12.88;6.47;;;14.50;99.90;;;;;;5095044;28;20054;-72
2021/06/02 03:49:10;;;;;;;15.65;6.22;;;14.50;99.90;;;;;;5092342;28;20048;-72
2021/06/02 03:51:38;;;;;;;16.55;7.50;;;14.50;99.90;;;;;;5094864;28;20090;-72
2021/06/02 03:54:11;;;;;;;15.07;6.20;;;14.50;99.90;;;;;;5094672;28;20048;-73
2021/06/02 03:56:57;;;;;;;13.00;6.65;;;14.50;99.90;;;;;;5094671;28;20052;-72
2021/06/02 03:59:29;;;;;;;14.98;6.65;;;14.60;99.90;;;;;;5094748;28;20048;-72
2021/06/02 04:01:59;;;;;;;14.68;6.70;;;14.50;99.90;;;;;;5094660;28;20048;-72
2021/06/02 04:04:29;;;;;;;13.23;5.97;;;14.50;99.90;;;;;;5094736;28;20054;-72
2021/06/02 04:07:02;;;;;;;12.93;6.47;;;14.50;99.90;;;;;;5095070;28;20054;-72
2021/06/02 04:09:30;;;;;;;12.00;6.50;;;14.50;99.90;;;;;;5094876;28;20048;-72
2021/06/02 04:12:05;;;;;;;13.60;6.45;;;14.50;99.90;;;;;;5094495;28;20055;-72
2021/06/02 04:14:32;;;;;;;11.93;6.10;;;14.50;99.90;;;;;;5094687;28;20048;-72
2021/06/02 04:17:01;;;;;;;14.80;7.13;;;14.50;99.90;;;;;;5094643;28;20113;-72
2021/06/02 04:19:28;;;;;;;14.73;6.68;;;14.50;99.90;;;;;;5094352;28;20058;-72
2021/06/02 04:21:56;;;;;;;16.88;6.70;;;14.50;99.90;;;;;;5094436;28;20048;-72
2021/06/02 04:24:22;;;;;;;13.75;6.57;;;14.50;99.90;;;;;;5094685;28;20048;-71
2021/06/02 04:26:49;;;;;;;12.32;6.85;;;14.50;99.90;;;;;;5094604;28;20060;-72
2021/06/02 04:29:15;;;;;;;12.02;6.43;;;14.50;99.90;;;;;;5094598;28;20085;-72
2021/06/02 04:31:51;;;;;;;13.55;6.30;;;14.50;99.90;;;;;;5094258;28;20052;-72
2021/06/02 04:34:19;;;;;;;14.10;6.90;;;14.50;99.90;;;;;;5094472;28;20052;-72
2021/06/02 04:36:46;;;;;;;10.05;5.72;;;14.50;99.90;;;;;;5094532;28;20116;-73
2021/06/02 04:39:12;;;;;;;15.05;7.32;;;14.50;99.90;;;;;;5094380;28;20377;-73
2021/06/02 04:41:40;;;;;;;13.15;7.32;;;14.50;99.90;;;;;;5094453;28;20044;-72
2021/06/02 04:44:07;;;;;;;14.10;6.18;;;14.50;99.90;;;;;;5094254;28;20063;-72
2021/06/02 04:46:33;;;;;;;15.63;6.82;;;14.50;99.90;;;;;;5094238;28;20103;-72
2021/06/02 04:49:00;;;;;;;16.55;7.60;;;14.50;99.90;;;;;;5094199;28;20349;-72
2021/06/02 04:52:10;;;;;;;13.02;7.35;;;14.50;99.90;;;;;;5094280;28;20056;-72
2021/06/02 04:55:11;;;;;;;18.02;6.45;;;14.50;99.90;;;;;;5094171;28;20443;-72
2021/06/02 04:58:00;;;;;;;15.90;6.75;;;14.40;99.90;;;;;;5094047;28;20353;-72
2021/06/02 05:01:06;;;;;;;13.82;8.07;;;14.50;99.90;;;;;;5091713;28;20393;-72
2021/06/02 05:04:12;;;;;;;16.23;6.97;;;14.40;99.90;;;;;;5094175;28;20052;-72
2021/06/02 05:06:56;;;;;;;;;;;14.50;99.90;;;;;;5098340;28;20048;-72
2021/06/02 05:10:10;;;;;;;14.88;7.05;;;14.50;99.90;;;;;;5097729;28;19934;-72
2021/06/02 05:13:28;;;;;;;17.20;7.13;;;14.50;99.90;;;;;;5097712;28;20067;-72
2021/06/02 05:16:27;;;;;;;20.90;8.75;;;14.60;99.90;;;;;;5097906;28;20114;-72
2021/06/02 05:19:45;;;;;;;14.25;7.68;;;14.60;99.90;;;;;;5097500;28;20364;-72
2021/06/02 05:22:33;;;;;;;16.75;8.25;;;14.70;99.90;;;;;;5097702;28;20048;-72
2021/06/02 05:26:01;;;;;;;16.42;8.32;;;14.70;99.90;;;;;;5094909;28;20055;-73
2021/06/02 05:29:22;;;;;;;15.30;7.45;;;14.80;99.90;;;;;;5035470;28;20049;-73
2021/06/02 05:32:18;;;;;;;14.88;7.47;;;14.80;99.90;;;;;;4976750;28;20054;-73
2021/06/02 05:35:15;;;;;;;19.20;8.95;;;14.90;99.90;;;;;;4976661;28;20062;-73
2021/06/02 05:38:17;;;;;;;16.53;8.10;;;15.00;99.90;;;;;;4976488;28;20112;-73
2021/06/02 05:40:55;;;;;;;17.23;9.32;;;15.20;99.90;;;;;;4976419;28;20055;-72
2021/06/02 05:43:50;;;;;;;15.88;7.93;;;15.30;99.90;;;;;;4976473;28;20061;-72
2021/06/02 05:46:28;;;;;;;15.80;8.68;;;15.30;99.90;;;;;;4976512;28;20055;-72
2021/06/02 05:49:23;;;;;;;15.60;7.63;;;15.40;99.90;;;;;;4976525;28;20082;-70
2021/06/02 05:51:59;;;;;;;19.70;8.10;;;15.50;99.90;;;;;;4960507;28;20047;-69
2021/06/02 05:55:11;;;;;;;17.63;7.57;;;15.70;99.90;;;;;;4976261;28;20112;-69
2021/06/02 05:58:25;;;;;;;16.73;7.55;;;15.80;99.90;;;;;;4975959;28;20059;-69
2021/06/02 06:01:19;;;;;;;14.00;8.02;;;15.90;99.90;;;;;;5015273;28;20050;-69
2021/06/02 06:04:28;;;;;;;11.30;6.85;;;16.10;99.90;;;;;;5015128;28;20057;-69
2021/06/02 06:07:01;;;;;;;14.60;7.47;;;16.20;99.90;;;;;;5090381;28;20052;-69
2021/06/02 06:10:27;;;;;;;14.85;6.88;;;16.30;99.90;;;;;;5096759;28;20063;-69
2021/06/02 06:13:20;;;;;;;14.75;6.45;;;16.40;99.90;;;;;;5096484;28;20464;-69
2021/06/02 06:16:18;;;;;;;11.85;6.32;;;16.60;99.90;;;;;;5096588;28;20056;-69
2021/06/02 06:19:03;;;;;;;12.60;6.90;;;16.80;99.90;;;;;;5096343;28;20044;-69
2021/06/02 06:22:03;;;;;;;13.45;6.40;;;16.90;99.90;;;;;;5095557;28;20058;-69
2021/06/02 06:24:32;;;;;;;16.05;7.00;;;17.10;99.90;;;;;;5076213;28;20048;-69
2021/06/02 06:27:02;;;;;;;10.73;5.93;;;17.20;99.90;;;;;;5096140;28;20466;-69
2021/06/02 06:29:32;;;;;;;12.50;5.93;;;17.30;99.90;;;;;;5096164;28;20055;-69
2021/06/02 06:31:58;;;;;;;10.35;4.97;;;17.40;99.90;;;;;;5096056;28;20048;-69
2021/06/02 06:34:27;;;;;;;7.90;4.35;;;17.50;99.90;;;;;;5096049;28;20464;-69
2021/06/02 06:36:54;;;;;;;8.55;5.05;;;17.60;99.90;;;;;;5096071;28;20048;-69
2021/06/02 06:39:28;;;;;;;8.10;4.30;;;17.80;99.90;;;;;;5095969;28;20181;-70
2021/06/02 06:41:55;;;;;;;9.23;4.43;;;18.00;99.90;;;;;;5095914;28;20044;-69
2021/06/02 06:44:21;;;;;;;14.85;5.97;;;18.30;99.90;;;;;;5096062;28;20288;-69
2021/06/02 06:46:48;;;;;;;9.07;4.55;;;18.90;99.90;;;;;;5095997;28;20117;-69
2021/06/02 06:49:15;;;;;;;7.78;3.95;;;20.00;99.90;;;;;;5095723;28;20044;-69
2021/06/02 06:51:42;;;;;;;7.03;3.50;;;21.20;95.80;;;;;;5095786;28;20054;-70
2021/06/02 06:54:10;;;;;;;4.90;3.13;;;22.00;94.80;;;;;;5095679;28;20475;-70
2021/06/02 06:56:38;;;;;;;6.93;3.35;;;21.90;92.90;;;;;;5095579;28;20052;-70
2021/06/02 06:59:05;;;;;;;6.55;3.90;;;21.80;94.30;;;;;;5095469;28;20040;-70
2021/06/02 07:01:33;;;;;;;6.75;3.28;;;21.50;93.60;;;;;;5095631;28;20052;-69
2021/06/02 07:03:59;;;;;;;9.18;4.15;;;21.40;96.70;;;;;;5095466;28;20055;-69
2021/06/02 07:06:26;;;;;;;8.95;4.22;;;21.40;97.20;;;;;;5095386;28;20466;-70
2021/06/02 07:08:52;;;;;;;5.32;3.53;;;22.00;94.60;;;;;;5095643;28;20048;-70
2021/06/02 07:11:19;;;;;;;4.65;3.28;;;23.50;87.40;;;;;;5095724;28;20052;-70
2021/06/02 07:13:47;;;;;;;7.30;3.50;;;25.10;76.50;;;;;;5095543;28;20052;-70
2021/06/02 07:16:14;;;;;;;8.38;4.05;;;25.90;66.80;;;;;;5095452;28;20108;-70
2021/06/02 07:18:44;;;;;;;5.65;3.42;;;27.40;60.60;;;;;;5095188;28;20044;-70
2021/06/02 07:21:10;;;;;;;5.70;3.40;;;28.40;57.40;;;;;;5095197;28;20388;-70
2021/06/02 07:23:38;;;;;;;4.78;3.15;;;29.80;59.30;;;;;;5095448;28;20048;-70
2021/06/02 07:26:05;;;;;;;6.60;3.45;;;31.00;53.70;;;;;;5095004;28;20047;-71
2021/06/02 07:28:35;;;;;;;4.60;3.20;;;31.50;49.60;;;;;;5094704;28;20394;-70
2021/06/02 07:31:03;;;;;;;7.15;3.35;;;32.10;49.80;;;;;;5095129;28;20052;-70
2021/06/02 07:33:30;;;;;;;4.93;3.72;;;32.10;49.40;;;;;;5094933;28;20048;-70
2021/06/02 07:35:56;;;;;;;6.50;3.78;;;32.30;49.00;;;;;;5094993;28;20056;-70
2021/06/02 07:38:23;;;;;;;5.82;3.78;;;32.20;48.50;;;;;;5094835;28;20055;-70
2021/06/02 07:40:50;;;;;;;7.63;3.30;;;31.30;47.40;;;;;;5094966;28;20116;-70
2021/06/02 07:43:16;;;;;;;4.60;3.15;;;30.50;49.50;;;;;;5095005;28;20048;-71
2021/06/02 07:45:43;;;;;;;8.20;3.28;;;30.70;49.30;;;;;;5094373;28;20074;-71
2021/06/02 07:48:11;;;;;;;5.25;2.90;;;31.50;49.90;;;;;;5094344;28;20692;-71
2021/06/02 07:50:37;;;;;;;5.07;3.35;;;32.70;49.60;;;;;;5092389;28;20051;-70
2021/06/02 07:53:04;;;;;;;3.15;2.70;;;34.10;48.10;;;;;;5094942;28;20165;-71
2021/06/02 07:55:31;;;;;;;6.32;3.50;;;34.90;45.40;;;;;;5094746;28;20052;-71
2021/06/02 07:57:57;;;;;;;5.72;3.33;;;35.10;43.60;;;;;;5094441;28;20056;-71
2021/06/02 08:00:24;;;;;;;5.88;4.10;;;35.30;43.90;;;;;;5094651;28;20052;-71
2021/06/02 08:02:50;;;;;;;4.13;2.70;;;34.30;44.00;;;;;;5094710;28;20048;-71
2021/06/02 08:05:18;;;;;;;3.90;2.90;;;33.50;44.40;;;;;;5094841;28;20133;-71
2021/06/02 08:07:46;;;;;;;3.67;3.13;;;33.10;44.70;;;;;;5094754;28;20054;-71
2021/06/02 08:10:13;;;;;;;4.68;3.08;;;32.70;44.00;;;;;;5093942;28;20052;-71
2021/06/02 08:12:40;;;;;;;4.25;3.03;;;32.20;45.00;;;;;;5094521;28;20055;-71
2021/06/02 08:15:09;;;;;;;4.50;3.45;;;32.10;45.40;;;;;;5094556;28;20372;-71
2021/06/02 08:17:35;;;;;;;6.47;2.95;;;32.10;46.30;;;;;;5094387;28;20158;-70
2021/06/02 08:20:02;;;;;;;4.78;3.22;;;33.60;45.10;;;;;;5094386;28;20048;-71
2021/06/02 08:22:30;;;;;;;5.55;3.10;;;34.10;44.10;;;;;;5094492;28;20052;-71
2021/06/02 08:24:57;;;;;;;8.05;2.92;;;33.90;44.20;;;;;;5094411;28;20058;-70
2021/06/02 08:27:23;;;;;;;4.05;2.92;;;33.00;44.20;;;;;;5094697;28;20056;-71
2021/06/02 08:29:53;;;;;;;7.75;4.05;;;31.60;46.30;;;;;;5094430;28;20044;-70
2021/06/02 08:32:20;;;;;;;7.07;3.22;;;30.20;48.60;;;;;;5094679;28;20354;-70
2021/06/02 08:34:47;;;;;;;8.00;3.65;;;29.50;50.00;;;;;;5094628;28;20056;-70
2021/06/02 08:37:14;;;;;;;5.45;2.83;;;29.50;49.00;;;;;;5094315;28;20048;-70
2021/06/02 08:39:42;;;;;;;8.45;3.70;;;29.90;49.20;;;;;;5095215;28;20040;-70
2021/06/02 08:42:08;;;;;;;4.60;3.38;;;29.50;49.50;;;;;;5098263;28;20475;-70
2021/06/02 08:44:36;;;;;;;4.70;3.45;;;28.70;50.70;;;;;;5098172;28;20467;-70
2021/06/02 08:47:02;;;;;;;8.43;3.40;;;27.80;52.40;;;;;;5098419;28;20048;-70
2021/06/02 08:49:29;;;;;;;7.80;4.30;;;26.80;53.20;;;;;;5098064;28;20452;-70
2021/06/02 08:51:55;;;;;;;7.15;4.05;;;25.90;55.40;;;;;;5098217;28;20052;-70
2021/06/02 08:54:22;;;;;;;4.50;3.33;;;25.30;56.80;;;;;;5098161;28;20054;-70
2021/06/02 08:56:50;;;;;;;8.65;3.33;;;24.80;57.10;;;;;;5097840;28;20048;-70
2021/06/02 08:59:17;;;;;;;6.00;3.05;;;24.60;59.70;;;;;;5097788;28;20048;-70
2021/06/02 09:01:44;;;;;;;7.05;3.53;;;24.30;60.10;;;;;;5097803;28;20375;-69
2021/06/02 09:04:11;;;;;;;4.80;3.22;;;24.00;63.10;;;;;;5097783;28;20083;-69
2021/06/02 09:06:37;;;;;;;6.22;3.47;;;23.60;62.90;;;;;;5097987;28;20131;-69
2021/06/02 09:09:05;;;;;;;7.32;4.35;;;23.60;64.30;;;;;;5097628;28;20044;-69
2021/06/02 09:11:37;;;;;;;5.43;3.22;;;23.40;65.10;;;;;;5097663;28;20471;-69
2021/06/02 09:14:20;;;;;;;4.05;2.60;;;23.40;66.40;;;;;;5097572;28;20475;-70
2021/06/02 09:16:48;;;;;;;5.75;3.40;;;23.40;68.40;;;;;;5097690;28;20048;-69
2021/06/02 09:19:15;;;;;;;6.47;3.67;;;23.30;71.60;;;;;;5097460;28;20499;-69
2021/06/02 09:21:42;;;;;;;8.18;3.03;;;23.10;71.90;;;;;;5097534;28;20048;-70
2021/06/02 09:24:09;;;;;;;6.43;3.90;;;23.00;74.60;;;;;;5097379;28;20051;-69
2021/06/02 09:26:35;;;;;;;4.05;2.95;;;22.80;77.30;;;;;;5097468;28;20059;-69
2021/06/02 09:29:08;;;;;;;7.20;3.17;;;22.70;82.00;;;;;;5097430;28;20040;-69
2021/06/02 09:31:35;;;;;;;6.40;3.45;;;22.70;81.30;;;;;;5097264;28;20094;-69
2021/06/02 09:34:13;;;;;;;8.07;2.80;;;22.60;88.10;;;;;;5093702;28;20051;-70
2021/06/02 09:36:40;;;;;;;5.70;3.08;;;22.60;87.80;;;;;;5095777;28;20129;-70
2021/06/02 09:39:07;;;;;;;4.85;2.97;;;22.60;84.40;;;;;;5097055;28;20052;-69
2021/06/02 09:41:39;;;;;;;4.55;2.55;;;22.60;87.80;;;;;;5097027;28;20058;-70
2021/06/02 09:44:15;;;;;;;7.93;2.90;;;22.50;86.40;;;;;;5097248;28;20048;-70
2021/06/02 09:46:57;;;;;;;5.40;2.70;;;22.40;89.30;;;;;;5097087;28;20058;-69
2021/06/02 09:49:24;;;;;;;5.80;2.90;;;22.40;86.50;;;;;;5096874;28;20047;-70
2021/06/02 09:51:51;;;;;;;5.75;2.78;;;22.30;88.60;;;;;;5096620;28;20060;-69
2021/06/02 09:54:31;;;;;;;5.82;2.55;;;22.30;90.20;;;;;;5097168;28;20044;-69
2021/06/02 09:57:00;;;;;;;5.80;3.13;;;22.30;90.10;;;;;;5096421;28;20573;-69
2021/06/02 09:59:30;;;;;;;6.68;2.88;;;22.30;88.50;;;;;;5096676;28;20051;-69
2021/06/02 10:01:58;;;;;;;5.63;2.92;;;22.30;90.80;;;;;;5096681;28;20051;-70
2021/06/02 10:04:29;;;;;;;6.10;2.60;;;22.30;90.00;;;;;;5096500;28;20077;-70
2021/06/02 10:06:57;;;;;;;4.47;2.60;;;22.30;90.50;;;;;;5096778;28;20115;-69
2021/06/02 10:09:27;;;;;;;4.13;2.40;;;22.30;90.60;;;;;;5096711;28;20059;-69
2021/06/02 10:11:59;;;;;;;4.65;2.80;;;22.30;90.20;;;;;;5096456;28;20113;-69
2021/06/02 10:14:25;;;;;;;6.15;2.92;;;22.30;91.20;;;;;;5095547;28;20409;-69
2021/06/02 10:16:54;;;;;;;7.93;2.65;;;22.30;92.60;;;;;;5096519;28;20048;-69
2021/06/02 10:19:40;;;;;;;6.32;2.80;;;22.40;93.50;;;;;;5096082;28;20040;-69
2021/06/02 10:22:24;;;;;;;5.15;3.30;;;22.40;92.20;;;;;;5095270;28;20063;-69
2021/06/02 10:24:53;;;;;;;3.83;2.72;;;22.50;92.00;;;;;;5093856;28;20051;-70
2021/06/02 10:27:19;;;;;;;5.65;3.35;;;22.40;90.80;;;;;;5096250;28;20047;-69
2021/06/02 10:29:48;;;;;;;5.43;3.13;;;22.50;91.60;;;;;;5096389;28;20066;-69
2021/06/02 10:32:17;;;;;;;8.35;3.05;;;22.60;92.30;;;;;;5096066;28;20464;-69
2021/06/02 10:34:44;;;;;;;9.63;3.92;;;22.60;88.80;;;;;;5096003;28;20048;-69
2021/06/02 10:37:12;;;;;;;9.10;2.80;;;22.60;90.40;;;;;;5096041;28;20048;-70
2021/06/02 10:39:38;;;;;;;5.50;2.70;;;22.60;90.60;;;;;;5095966;28;20048;-69
2021/06/02 10:42:06;;;;;;;4.35;2.45;;;22.50;93.70;;;;;;5095940;28;20470;-74
2021/06/02 10:44:34;;;;;;;5.88;2.78;;;22.50;91.40;;;;;;5095875;28;20434;-69
2021/06/02 10:47:01;;;;;;;8.65;2.92;;;22.50;91.80;;;;;;5096005;28;20121;-72
2021/06/02 10:49:34;;;;;;;5.43;3.17;;;22.50;91.20;;;;;;5095827;28;20048;-73
2021/06/02 10:52:01;;;;;;;6.43;3.28;;;22.50;92.70;;;;;;5095620;28;20048;-72
2021/06/02 10:54:34;;;;;;;4.80;2.90;;;22.50;91.20;;;;;;5095671;28;20056;-72
2021/06/02 10:57:08;;;;;;;5.22;3.55;;;22.50;91.10;;;;;;5095586;28;20153;-71
2021/06/02 10:59:35;;;;;;;9.40;3.08;;;22.50;91.40;;;;;;5092649;28;20056;-71
2021/06/02 11:02:03;;;;;;;5.75;2.65;;;22.50;92.70;;;;;;5094452;28;20055;-71
2021/06/02 11:04:33;;;;;;;9.52;3.67;;;22.50;92.50;;;;;;5095724;28;20079;-71
2021/06/02 11:07:19;;;;;;;3.90;2.38;;;22.50;91.30;;;;;;5095572;28;20094;-72
2021/06/02 11:09:53;;;;;;;10.65;2.97;;;22.50;93.60;;;;;;5095743;28;20044;-71
2021/06/02 11:12:20;;;;;;;5.63;2.75;;;22.50;92.50;;;;;;5095607;28;20444;-71
2021/06/02 11:14:46;;;;;;;3.58;2.30;;;22.50;93.00;;;;;;5095601;28;20059;-71
2021/06/02 11:17:14;;;;;;;4.82;2.53;;;22.50;92.50;;;;;;5094376;28;20048;-71
2021/06/02 11:19:47;;;;;;;5.10;2.58;;;22.60;94.00;;;;;;5093990;28;20136;-71
2021/06/02 11:22:15;;;;;;;4.28;2.13;;;22.80;93.80;;;;;;5095581;28;20126;-71
2021/06/02 11:24:44;;;;;;;3.90;2.42;;;22.90;91.40;;;;;;5095351;28;20054;-71
2021/06/02 11:27:30;;;;;;;5.13;3.05;;;23.00;93.80;;;;;;5095343;28;20083;-71
2021/06/02 11:30:13;;;;;;;7.90;2.63;;;23.00;93.30;;;;;;5085708;28;20072;-71
2021/06/02 11:32:56;;;;;;;4.90;2.40;;;23.10;92.60;;;;;;5074898;28;20044;-71
2021/06/02 11:36:10;;;;;;;4.82;2.15;;;23.10;90.00;;;;;;5074914;28;20053;-71
2021/06/02 11:38:38;;;;;;;3.38;2.22;;;23.10;90.00;;;;;;5074883;28;20044;-72
2021/06/02 11:41:06;;;;;;;3.22;2.85;;;23.00;91.30;;;;;;5074850;28;20404;-71
2021/06/02 11:43:33;;;;;;;5.07;2.30;;;23.00;93.80;;;;;;5074797;28;20063;-71
2021/06/02 11:46:00;;;;;;;4.90;2.83;;;22.90;93.60;;;;;;5074924;28;20177;-71
2021/06/02 11:48:36;;;;;;;5.00;3.22;;;22.90;93.30;;;;;;5074785;28;20056;-72
2021/06/02 11:51:07;;;;;;;3.67;2.38;;;22.80;92.50;;;;;;5074642;28;20136;-78
2021/06/02 11:53:46;;;;;;;8.02;3.58;;;22.90;93.00;;;;;;5074116;28;20049;-79
2021/06/02 11:56:13;;;;;;;5.65;2.40;;;23.00;94.00;;;;;;5074325;28;20052;-78
2021/06/02 11:58:40;;;;;;;9.00;3.05;;;23.20;94.80;;;;;;5074687;28;20048;-79
2021/06/02 12:01:07;;;;;;;3.67;2.88;;;23.30;92.20;;;;;;5074006;28;20061;-79
2021/06/02 12:03:34;;;;;;;4.88;2.33;;;23.40;91.00;;;;;;5074606;28;20048;-79
2021/06/02 12:06:01;;;;;;;4.82;2.80;;;23.40;92.30;;;;;;5074635;28;20057;-79
2021/06/02 12:08:27;;;;;;;3.65;2.33;;;23.40;91.10;;;;;;5074675;28;20056;-79
2021/06/02 12:10:58;;;;;;;4.55;2.50;;;23.50;92.80;;;;;;5074563;28;20448;-79
2021/06/02 12:13:29;;;;;;;5.15;2.30;;;23.50;91.80;;;;;;5075421;28;20044;-79
2021/06/02 12:16:02;;;;;;;5.95;2.20;;;23.50;92.10;;;;;;5078450;28;20055;-79
2021/06/02 12:18:33;;;;;;;3.83;2.30;;;23.50;93.40;;;;;;5078065;28;20395;-79
2021/06/02 12:21:25;;;;;;;3.65;1.95;;;23.40;93.40;;;;;;5078053;28;20058;-79
2021/06/02 12:23:54;;;;;;;4.63;2.70;;;23.40;94.80;;;;;;5059795;28;20589;-79
2021/06/02 12:26:24;;;;;;;4.97;2.38;;;23.50;87.10;;;;;;5078574;28;20054;-79
2021/06/02 12:28:50;;;;;;;5.15;2.58;;;23.50;91.60;;;;;;5078704;28;20044;-79
2021/06/02 12:31:45;;;;;;;3.45;1.95;;;23.50;89.70;;;;;;5078312;28;20049;-79
2021/06/02 12:34:13;;;;;;;3.95;2.33;;;23.40;76.80;;;;;;4997470;28;20050;-79
2021/06/02 12:36:47;;;;;;;4.07;2.17;;;23.40;73.10;;;;;;4997254;28;20050;-79
2021/06/02 12:39:14;;;;;;;;;;;23.40;73.20;;;;;;4997628;28;20174;-79
2021/06/02 12:41:43;;;;;;;7.18;2.58;;;23.40;74.30;;;;;;4997264;28;19951;-79
2021/06/02 12:44:10;;;;;;;9.80;2.72;;;23.50;72.00;;;;;;4997201;28;20081;-79
2021/06/02 12:46:36;;;;;;;3.17;2.72;;;23.50;72.20;;;;;;4997111;28;20077;-79
2021/06/02 12:49:07;;;;;;;5.13;2.03;;;23.60;72.00;;;;;;4996838;28;20056;-79
2021/06/02 12:51:33;;;;;;;5.05;2.40;;;23.60;74.30;;;;;;4996795;28;20050;-79
2021/06/02 12:54:01;;;;;;;3.28;2.13;;;23.70;76.50;;;;;;4996964;28;20050;-79
2021/06/02 12:56:27;;;;;;;4.38;2.25;;;23.60;75.40;;;;;;4996649;28;20050;-79
2021/06/02 12:58:56;;;;;;;3.55;1.95;;;23.60;72.90;;;;;;4996964;28;20050;-79
2021/06/02 13:01:27;;;;;;;6.18;2.58;;;23.60;74.50;;;;;;4996852;28;20578;-79
2021/06/02 13:03:54;;;;;;;7.97;3.20;;;23.60;78.40;;;;;;4996837;28;20050;-79
2021/06/02 13:06:21;;;;;;;5.53;2.67;;;23.60;76.30;;;;;;4996745;28;20046;-79
2021/06/02 13:08:48;;;;;;;6.60;2.42;;;23.60;73.00;;;;;;5002847;28;20402;-79
2021/06/02 13:11:17;;;;;;;3.65;1.52;;;23.60;74.60;;;;;;5077475;28;20139;-79
2021/06/02 13:13:47;;;;;;;5.78;2.45;;;23.50;76.30;;;;;;5076542;28;20071;-79
2021/06/02 13:16:15;;;;;;;3.78;2.10;;;23.50;77.90;;;;;;5077300;28;20048;-79
2021/06/02 13:18:42;;;;;;;3.50;2.40;;;23.40;78.20;;;;;;5077705;28;20097;-79
2021/06/02 13:21:12;;;;;;;3.58;2.13;;;23.40;76.40;;;;;;5077554;28;20059;-79